createdAt,value
2019-05-03T00:00:59.716Z,22.97
2019-05-03T00:06:03.337Z,23.93
2019-05-03T00:11:05.071Z,24.00
2019-05-03T00:16:23.895Z,23.67
2019-05-03T00:21:25.566Z,25.80
2019-05-03T00:26:27.147Z,23.23
2019-05-03T00:31:29.047Z,24.43
2019-05-03T00:36:32.939Z,23.67
2019-05-03T00:41:34.651Z,23.03
2019-05-03T00:46:36.107Z,23.03
2019-05-03T00:51:37.703Z,22.53
2019-05-03T00:56:43.967Z,22.03
2019-05-03T01:01:43.750Z,22.13
2019-05-03T01:06:45.327Z,21.47
2019-05-03T01:11:46.914Z,21.33
2019-05-03T01:16:48.499Z,22.10
2019-05-03T01:21:51.527Z,21.80
2019-05-03T01:26:53.142Z,21.80
2019-05-03T01:31:54.619Z,21.63
2019-05-03T01:36:56.175Z,21.10
2019-05-03T01:41:57.649Z,21.20
2019-05-03T01:47:02.308Z,21.53
2019-05-03T01:52:14.927Z,21.33
2019-05-03T01:57:16.401Z,20.57
2019-05-03T02:02:28.831Z,19.40
2019-05-03T02:07:31.646Z,19.57
2019-05-03T02:12:33.194Z,20.77
2019-05-03T02:17:34.782Z,19.80
2019-05-03T02:22:36.369Z,20.53
2019-05-03T02:27:37.841Z,18.83
2019-05-03T02:32:39.407Z,18.73
2019-05-03T02:37:43.854Z,21.47
2019-05-03T02:43:05.669Z,19.80
2019-05-03T02:48:12.172Z,17.67
2019-05-03T02:53:15.221Z,18.97
2019-05-03T02:58:17.145Z,19.17
2019-05-03T03:03:19.059Z,19.17
2019-05-03T03:08:22.146Z,18.40
2019-05-03T03:13:28.100Z,19.77
2019-05-03T03:18:36.420Z,18.33
2019-05-03T03:23:56.265Z,16.63
2019-05-03T03:29:06.935Z,16.53
2019-05-03T03:34:10.817Z,14.83
2019-05-03T03:39:14.974Z,15.67
2019-05-03T03:44:20.047Z,14.97
2019-05-03T03:49:21.776Z,19.70
2019-05-03T03:54:25.802Z,17.70
2019-05-03T03:59:28.158Z,18.13
2019-05-03T04:04:30.131Z,17.13
2019-05-03T04:09:31.949Z,16.93
2019-05-03T04:14:36.694Z,19.17
2019-05-03T04:19:40.390Z,23.10
2019-05-03T04:24:42.180Z,20.10
2019-05-03T04:29:45.410Z,22.90
2019-05-03T04:34:47.232Z,25.07
2019-05-03T04:39:48.749Z,29.20
2019-05-03T04:44:50.283Z,20.67
2019-05-03T04:49:51.815Z,24.70
2019-05-03T04:54:56.270Z,24.27
2019-05-03T04:59:58.420Z,42.60
2019-05-03T05:04:59.905Z,21.40
2019-05-03T05:10:05.171Z,23.93
2019-05-03T05:15:07.226Z,21.40
2019-05-03T05:20:24.875Z,20.63
2019-05-03T05:25:28.706Z,21.23
2019-05-03T05:30:31.195Z,24.97
2019-05-03T05:35:32.793Z,29.43
2019-05-03T05:40:35.022Z,56.10
2019-05-03T05:45:36.593Z,18.17
2019-05-03T05:50:44.761Z,20.27
2019-05-03T05:55:47.933Z,20.40
2019-05-03T06:00:55.160Z,21.70
2019-05-03T06:05:58.730Z,21.80
2019-05-03T06:11:05.175Z,26.87
2019-05-03T06:16:08.787Z,24.47
2019-05-03T06:21:15.206Z,27.53
2019-05-03T06:26:35.340Z,24.53
2019-05-03T06:31:40.086Z,21.93
2019-05-03T06:36:44.281Z,21.83
2019-05-03T06:41:45.955Z,23.87
2019-05-03T06:46:49.544Z,25.90
2019-05-03T06:51:51.173Z,24.83
2019-05-03T06:56:52.700Z,26.67
2019-05-03T07:02:05.702Z,27.13
2019-05-03T07:07:07.371Z,26.00
2019-05-03T07:12:10.056Z,27.63
2019-05-03T07:17:11.681Z,25.80
2019-05-03T07:22:15.131Z,27.60
2019-05-03T07:27:16.591Z,30.47
2019-05-03T07:32:18.227Z,27.27
2019-05-03T07:37:19.700Z,27.53
2019-05-03T07:42:22.274Z,31.00
2019-05-03T07:47:24.607Z,33.33
2019-05-03T07:52:26.298Z,33.03
2019-05-03T07:57:30.854Z,33.90
2019-05-03T08:02:32.765Z,36.23
2019-05-03T08:07:35.629Z,34.83
2019-05-03T08:12:37.295Z,32.60
2019-05-03T08:17:38.917Z,33.37
2019-05-03T08:22:40.442Z,29.33
2019-05-03T08:27:42.181Z,27.37
2019-05-03T08:32:48.393Z,26.20
2019-05-03T08:37:51.678Z,28.90
2019-05-03T08:42:55.022Z,27.13
2019-05-03T08:47:57.288Z,27.60
2019-05-03T08:52:58.773Z,26.30
2019-05-03T08:58:00.295Z,26.20
2019-05-03T09:03:01.774Z,27.40
2019-05-03T09:08:05.682Z,25.67
2019-05-03T09:13:07.972Z,27.30
2019-05-03T09:18:09.655Z,25.53
2019-05-03T09:23:11.311Z,24.00
2019-05-03T09:28:14.906Z,25.17
2019-05-03T09:33:16.950Z,25.17
2019-05-03T09:38:18.490Z,25.57
2019-05-03T09:43:20.180Z,26.13
2019-05-03T09:48:22.259Z,25.30
2019-05-03T09:53:25.755Z,25.90
2019-05-03T09:58:27.277Z,25.47
2019-05-03T10:03:28.886Z,24.33
2019-05-03T10:08:30.428Z,25.83
2019-05-03T10:13:32.021Z,30.27
2019-05-03T10:18:35.311Z,30.73
2019-05-03T10:23:38.796Z,31.10
2019-05-03T10:28:40.310Z,26.47
2019-05-03T10:33:45.038Z,30.23
2019-05-03T10:38:47.915Z,28.47
2019-05-03T10:43:49.391Z,23.23
2019-05-03T10:48:50.997Z,26.37
2019-05-03T10:53:54.817Z,25.70
2019-05-03T10:59:01.441Z,28.87
2019-05-03T11:04:05.326Z,25.60
2019-05-03T11:09:07.760Z,28.50
2019-05-03T11:14:09.538Z,26.43
2019-05-03T11:19:11.219Z,25.67
2019-05-03T11:24:14.724Z,18.37
2019-05-03T11:29:16.186Z,17.07
2019-05-03T11:48:34.948Z,15.67
2019-05-03T11:53:36.712Z,13.90
2019-05-03T11:58:38.184Z,12.70
2019-05-03T12:03:45.196Z,9.27
2019-05-03T12:08:46.919Z,8.47
2019-05-03T12:14:01.445Z,7.53
2019-05-03T12:18:53.962Z,10.17
2019-05-03T12:23:56.571Z,9.43
2019-05-03T12:28:58.591Z,7.43
2019-05-03T12:34:00.067Z,6.43
2019-05-03T12:39:01.538Z,6.80
2019-05-03T12:44:05.062Z,7.23
2019-05-03T12:49:07.759Z,6.37
2019-05-03T12:54:09.224Z,5.80
2019-05-03T12:59:12.621Z,5.23
2019-05-03T13:04:19.263Z,6.43
2019-05-03T13:09:20.912Z,5.30
2019-05-03T13:14:22.513Z,8.90
2019-05-03T13:19:25.769Z,8.30
2019-05-03T13:24:27.314Z,8.83
2019-05-03T13:29:28.989Z,7.43
2019-05-03T13:34:30.563Z,7.30
2019-05-03T13:39:32.346Z,7.57
2019-05-03T13:44:35.582Z,8.50
2019-05-03T13:49:37.312Z,9.97
2019-05-03T13:54:38.782Z,9.00
2019-05-03T13:59:40.270Z,10.00
2019-05-03T14:04:50.161Z,11.00
2019-05-03T14:09:45.337Z,10.87
2019-05-03T14:14:55.332Z,8.40
2019-05-03T14:19:58.404Z,8.63
2019-05-03T14:24:59.847Z,9.07
2019-05-03T14:30:07.345Z,8.40
2019-05-03T14:35:10.177Z,7.07
2019-05-03T14:40:14.508Z,6.23
2019-05-03T14:45:15.858Z,4.97
2019-05-03T14:50:17.847Z,6.00
2019-05-03T14:55:37.954Z,6.57
2019-05-03T15:00:45.486Z,8.43
2019-05-03T15:05:47.177Z,8.00
2019-05-03T15:10:48.643Z,7.80
2019-05-03T15:15:50.592Z,6.83
2019-05-03T15:20:52.076Z,7.93
2019-05-03T15:25:54.593Z,8.60
2019-05-03T15:30:56.373Z,9.47
2019-05-03T15:35:57.858Z,8.70
2019-05-03T15:40:59.362Z,10.27
2019-05-03T15:46:05.369Z,11.93
2019-05-03T15:51:06.911Z,12.77
2019-05-03T15:56:08.439Z,13.23
2019-05-03T16:01:10.121Z,13.77
2019-05-03T16:06:11.815Z,11.17
2019-05-03T16:11:14.823Z,12.33
2019-05-03T16:16:16.774Z,11.07
2019-05-03T16:21:18.630Z,9.23
2019-05-03T16:26:20.206Z,9.33
2019-05-03T16:31:24.861Z,10.07
2019-05-03T16:36:27.577Z,11.20
2019-05-03T16:41:29.061Z,12.40
2019-05-03T16:46:30.635Z,13.63
2019-05-03T16:51:32.269Z,14.20
2019-05-03T16:56:35.370Z,14.03
2019-05-03T17:01:37.102Z,13.07
2019-05-03T17:06:40.484Z,14.43
2019-05-03T17:11:41.997Z,13.50
2019-05-03T17:16:45.055Z,17.87
2019-05-03T17:21:46.795Z,15.93
2019-05-03T17:26:48.551Z,12.57
2019-05-03T17:31:50.143Z,13.00
2019-05-03T17:36:51.678Z,18.20
2019-05-03T17:42:00.909Z,24.37
2019-05-03T17:47:04.315Z,20.27
2019-05-03T17:52:05.982Z,14.57
2019-05-03T17:57:15.489Z,16.63
2019-05-03T18:02:21.788Z,15.90
2019-05-03T18:07:30.374Z,14.03
2019-05-03T18:12:31.410Z,13.83
2019-05-03T18:17:35.125Z,16.83
2019-05-03T18:22:36.658Z,16.00
2019-05-03T18:27:38.339Z,18.10
2019-05-03T18:32:50.794Z,19.00
2019-05-03T18:37:58.550Z,18.63
2019-05-03T18:43:04.984Z,19.13
2019-05-03T18:48:06.558Z,16.90
2019-05-03T18:53:08.736Z,16.73
2019-05-03T18:58:10.849Z,19.73
2019-05-03T19:03:12.682Z,20.53
2019-05-03T19:08:17.298Z,20.77
2019-05-03T19:13:26.610Z,21.67
2019-05-03T19:18:30.142Z,25.20
2019-05-03T19:23:32.079Z,29.77
2019-05-03T19:28:35.270Z,30.90
2019-05-03T19:33:37.416Z,26.57
2019-05-03T19:38:39.020Z,25.67
2019-05-03T19:43:40.599Z,26.07
2019-05-03T19:48:42.091Z,24.47
2019-05-03T19:53:45.468Z,28.13
2019-05-03T19:58:47.621Z,27.67
2019-05-03T20:04:07.658Z,28.40
2019-05-03T20:09:11.036Z,26.70
2019-05-03T20:14:14.754Z,24.97
2019-05-03T20:19:20.868Z,28.43
2019-05-03T20:24:19.491Z,23.53
2019-05-03T20:29:21.079Z,28.37
2019-05-03T20:34:24.741Z,26.10
2019-05-03T20:39:26.057Z,18.70
2019-05-03T20:44:35.239Z,17.10
2019-05-03T20:49:36.617Z,30.23
2019-05-03T20:54:38.137Z,21.23
2019-05-03T20:59:45.187Z,18.33
2019-05-03T21:04:44.746Z,20.37
2019-05-03T21:09:46.697Z,19.33
2019-05-03T21:14:48.284Z,20.63
2019-05-03T21:19:55.157Z,21.20
2019-05-03T21:25:01.541Z,18.87
2019-05-03T21:30:08.087Z,19.47
2019-05-03T21:35:09.969Z,17.63
2019-05-03T21:40:12.291Z,19.87
2019-05-03T21:45:15.978Z,23.10
2019-05-03T21:50:19.288Z,22.83
2019-05-03T21:55:20.803Z,21.83
2019-05-03T22:00:24.782Z,19.50
2019-05-03T22:05:28.158Z,18.43
2019-05-03T22:10:29.768Z,19.07
2019-05-03T22:15:34.767Z,18.87
2019-05-03T22:20:36.334Z,19.57
2019-05-03T22:25:39.802Z,20.47
2019-05-03T22:30:41.287Z,19.63
2019-05-03T22:35:44.506Z,18.60
2019-05-03T22:40:46.775Z,19.53
2019-05-03T22:45:48.382Z,20.50
2019-05-03T22:50:49.846Z,21.03
2019-05-03T22:55:51.803Z,19.90
2019-05-03T23:00:55.013Z,21.80
2019-05-03T23:05:56.766Z,19.60
2019-05-03T23:10:58.265Z,20.10
2019-05-03T23:15:59.718Z,19.93
2019-05-03T23:21:15.256Z,18.07
2019-05-03T23:26:17.280Z,18.00
2019-05-03T23:31:18.738Z,26.13
2019-05-03T23:36:32.516Z,21.80
2019-05-03T23:41:24.527Z,18.30
2019-05-03T23:46:28.106Z,17.67
2019-05-03T23:51:47.982Z,17.23
2019-05-03T23:56:49.509Z,18.00
